Time;durP1;ratioP1;P1;durP2;ratioP2;P2;SDS_P1;SDS_P2;PMS_P1;PMS_P2;Temp;Humidity;BMP_temperature;BMP_pressure;BME280_temperature;BME280_humidity;BME280_pressure;Samples;Min_cycle;Max_cycle;Signal;HPM_P1;HPM_P2
2023/08/04 00:00:17;;;;;;;4.17;2.60;;;;;;;19.88;68.41;100470.47;5038040;27;97055;-51
2023/08/04 00:02:42;;;;;;;5.40;2.47;;;;;;;19.89;68.20;100476.78;5037282;27;97217;-51
2023/08/04 00:05:08;;;;;;;4.53;2.70;;;;;;;19.88;68.31;100478.09;5037266;27;111133;-51
2023/08/04 00:07:34;;;;;;;6.10;3.00;;;;;;;19.86;68.25;100477.91;5038783;27;97118;-51
2023/08/04 00:09:59;;;;;;;5.20;2.47;;;;;;;19.84;68.38;100477.72;5039303;27;97362;-51
2023/08/04 00:12:25;;;;;;;5.80;2.47;;;;;;;19.84;68.38;100483.31;5038258;27;97367;-51
2023/08/04 00:14:50;;;;;;;5.27;2.73;;;;;;;19.82;68.18;100477.53;5039974;27;96943;-51
2023/08/04 00:17:16;;;;;;;5.60;2.70;;;;;;;19.81;68.23;100487.97;5037781;27;97105;-51
2023/08/04 00:19:41;;;;;;;10.43;2.90;;;;;;;19.79;68.38;100487.78;5036562;27;97995;-51
2023/08/04 00:22:07;;;;;;;2.63;2.00;;;;;;;19.78;68.24;100485.56;5038256;27;97237;-50
2023/08/04 00:24:32;;;;;;;5.87;2.90;;;;;;;19.78;68.34;100488.34;5037117;27;97415;-51
2023/08/04 00:27:00;;;;;;;4.03;2.60;;;;;;;19.76;68.32;100488.91;5036080;27;106417;-51
2023/08/04 00:29:25;;;;;;;3.90;2.90;;;;;;;19.75;68.12;100481.84;5041162;27;96985;-51
2023/08/04 00:31:51;;;;;;;6.40;2.80;;;;;;;19.72;68.33;100482.97;5038541;27;97476;-51
2023/08/04 00:34:16;;;;;;;3.27;2.50;;;;;;;19.72;68.29;100493.38;5037039;27;97211;-51
2023/08/04 00:36:42;;;;;;;4.83;2.67;;;;;;;19.69;68.27;100497.28;5037591;27;97555;-51
2023/08/04 00:39:07;;;;;;;6.00;2.97;;;;;;;19.66;68.02;100501.22;5041177;27;96735;-51
2023/08/04 00:41:32;;;;;;;3.27;2.80;;;;;;;19.63;68.14;100505.88;5037582;27;97087;-51
2023/08/04 00:43:58;;;;;;;4.33;2.77;;;;;;;19.61;68.21;100508.47;5040122;27;97763;-51
2023/08/04 00:46:23;;;;;;;7.67;3.67;;;;;;;19.61;68.26;100507.72;5037489;27;101470;-51
2023/08/04 00:48:49;;;;;;;8.83;2.70;;;;;;;19.59;68.17;100515.91;5038660;27;97073;-51
2023/08/04 00:51:14;;;;;;;4.80;2.80;;;;;;;19.58;68.21;100514.41;5037887;27;97074;-51
2023/08/04 00:53:40;;;;;;;5.27;2.60;;;;;;;19.56;68.07;100522.59;5036951;27;96895;-51
2023/08/04 00:56:05;;;;;;;8.27;3.30;;;;;;;19.55;68.37;100527.44;5037924;27;97401;-51
2023/08/04 00:58:33;;;;;;;3.53;3.00;;;;;;;19.54;68.26;100537.13;5033623;27;96561;-51
2023/08/04 01:01:00;;;;;;;5.50;2.93;;;;;;;19.53;68.46;100538.41;5041572;27;97346;-51
2023/08/04 01:03:26;;;;;;;2.60;2.40;;;;;;;19.52;68.28;100536.19;5039850;27;97809;-50
2023/08/04 01:06:24;;;;;;;4.20;3.17;;;;;;;19.51;68.11;100545.84;5038744;27;98081;-51
2023/08/04 01:09:17;;;;;;;4.53;2.73;;;;;;;19.50;68.32;100541.59;5038509;27;96735;-51
2023/08/04 01:11:53;;;;;;;5.67;2.90;;;;;;;19.49;68.21;100552.00;5035682;27;97894;-51
2023/08/04 01:14:19;;;;;;;3.90;2.40;;;;;;;19.47;68.29;100559.44;5037908;27;96660;-51
2023/08/04 01:16:44;;;;;;;3.03;2.60;;;;;;;19.46;68.19;100555.91;5037257;27;97099;-51
2023/08/04 01:19:09;;;;;;;5.07;2.83;;;;;;;19.44;68.04;100562.03;5038790;27;97003;-51
2023/08/04 01:21:42;;;;;;;7.13;3.00;;;;;;;19.46;68.20;100563.53;5036453;27;97460;-51
2023/08/04 01:24:08;;;;;;;5.70;2.53;;;;;;;19.43;68.17;100565.38;5037790;27;96809;-51
2023/08/04 01:26:37;;;;;;;5.10;2.90;;;;;;;19.44;68.03;100562.03;5039923;27;96759;-50
2023/08/04 01:29:03;;;;;;;3.33;2.93;;;;;;;19.43;68.12;100568.94;5039519;27;97624;-51
2023/08/04 01:31:29;;;;;;;5.17;2.60;;;;;;;19.43;68.09;100563.34;5036170;27;96908;-51
2023/08/04 01:33:55;;;;;;;3.10;2.20;;;;;;;19.43;68.10;100562.59;5037977;27;97388;-51
2023/08/04 01:36:20;;;;;;;3.63;2.33;;;;;;;19.43;68.18;100568.19;5035147;27;97362;-51
2023/08/04 01:38:45;;;;;;;4.80;2.60;;;;;;;19.41;68.07;100562.41;5037129;27;97649;-51
2023/08/04 01:41:11;;;;;;;4.20;2.37;;;;;;;19.40;68.19;100558.88;5038016;27;97426;-51
2023/08/04 01:43:36;;;;;;;4.70;2.23;;;;;;;19.38;68.19;100564.25;5038081;27;97460;-51
2023/08/04 01:46:01;;;;;;;2.57;2.10;;;;;;;19.36;68.25;100564.06;5038728;27;106410;-50
2023/08/04 01:48:27;;;;;;;5.23;2.83;;;;;;;19.33;68.23;100570.72;5038311;27;97282;-51
2023/08/04 01:50:53;;;;;;;4.57;2.60;;;;;;;19.32;68.36;100560.13;5036168;27;96821;-50
2023/08/04 01:53:18;;;;;;;3.50;2.30;;;;;;;19.31;68.49;100570.53;5035332;27;97912;-51
2023/08/04 01:55:47;;;;;;;5.67;2.60;;;;;;;19.30;68.33;100569.06;5034666;27;105690;-50
2023/08/04 01:58:12;;;;;;;6.03;2.73;;;;;;;19.30;68.12;100568.31;5037709;27;97208;-50
2023/08/04 02:00:37;;;;;;;3.17;2.80;;;;;;;19.28;68.17;100571.66;5039002;27;97373;-51
2023/08/04 02:03:03;;;;;;;4.10;3.00;;;;;;;19.28;68.39;100580.03;5037089;27;97462;-50
2023/08/04 02:05:28;;;;;;;4.47;3.23;;;;;;;19.25;68.40;100578.34;5037462;27;107037;-51
2023/08/04 02:07:53;;;;;;;6.13;2.80;;;;;;;19.24;68.41;100571.25;5040021;27;97231;-51
2023/08/04 02:10:19;;;;;;;5.43;3.00;;;;;;;19.24;68.25;100576.13;5035857;27;97303;-51
2023/08/04 02:12:44;;;;;;;4.83;2.87;;;;;;;19.23;68.40;100580.94;5035419;27;109267;-51
2023/08/04 02:15:09;;;;;;;3.63;2.73;;;;;;;19.21;68.40;100583.53;5035964;27;97103;-51
2023/08/04 02:17:36;;;;;;;7.13;2.80;;;;;;;19.19;68.35;100591.72;5037361;27;97003;-51
2023/08/04 02:20:02;;;;;;;6.80;3.13;;;;;;;19.18;68.47;100589.47;5038761;27;97035;-51
2023/08/04 02:22:28;;;;;;;3.30;3.00;;;;;;;19.18;68.20;100595.03;5036958;27;97882;-51
2023/08/04 02:24:53;;;;;;;4.30;2.93;;;;;;;19.14;68.36;100603.78;5039007;27;97600;-51
2023/08/04 02:27:18;;;;;;;4.83;2.77;;;;;;;19.14;68.14;100611.41;5036559;27;97176;-51
2023/08/04 02:29:44;;;;;;;9.03;3.00;;;;;;;19.13;68.19;100607.13;5039186;27;97370;-51
2023/08/04 02:32:10;;;;;;;4.27;2.87;;;;;;;19.10;68.38;100619.38;5036454;27;106376;-50
2023/08/04 02:34:36;;;;;;;3.57;2.77;;;;;;;19.10;68.22;100622.19;5038465;27;96746;-51
2023/08/04 02:37:01;;;;;;;3.97;2.93;;;;;;;19.09;68.33;100627.00;5037933;27;97364;-51
2023/08/04 02:39:26;;;;;;;5.33;3.10;;;;;;;19.06;68.10;100630.91;5037940;27;97200;-50
2023/08/04 02:41:52;;;;;;;4.70;2.83;;;;;;;19.05;68.21;100625.88;5034561;27;106036;-50
2023/08/04 02:44:17;;;;;;;3.23;2.90;;;;;;;19.01;68.46;100629.03;5035861;27;98219;-51
2023/08/04 02:46:44;;;;;;;3.47;2.70;;;;;;;19.00;68.22;100630.31;5037676;27;99210;-51
2023/08/04 02:49:10;;;;;;;2.80;2.50;;;;;;;18.95;68.13;100634.03;5038255;27;97344;-51
2023/08/04 02:51:35;;;;;;;4.03;2.50;;;;;;;18.94;68.18;100632.53;5035379;27;97267;-51
2023/08/04 02:54:01;;;;;;;6.53;3.20;;;;;;;18.92;68.19;100623.97;5035657;27;97565;-51
2023/08/04 02:56:27;;;;;;;3.40;2.90;;;;;;;18.89;68.15;100627.88;5037338;27;96629;-51
2023/08/04 02:58:52;;;;;;;9.77;3.10;;;;;;;18.89;68.44;100622.28;5038709;27;97511;-51
2023/08/04 03:01:17;;;;;;;5.77;3.07;;;;;;;18.89;68.28;100627.13;5035471;27;106914;-51
2023/08/04 03:03:43;;;;;;;5.67;2.83;;;;;;;18.88;68.17;100620.03;5038038;27;96665;-51
2023/08/04 03:06:08;;;;;;;4.37;2.90;;;;;;;18.87;68.19;100630.44;5037698;27;96943;-51
2023/08/04 03:08:33;;;;;;;6.47;3.10;;;;;;;18.87;68.20;100629.72;5033822;27;97079;-50
2023/08/04 03:10:59;;;;;;;7.60;2.97;;;;;;;18.85;68.23;100635.81;5032239;27;98047;-51
2023/08/04 03:13:24;;;;;;;4.83;3.67;;;;;;;18.84;68.20;100637.13;5035443;27;96981;-51
2023/08/04 03:15:57;;;;;;;4.23;2.63;;;;;;;18.84;67.93;100639.91;5032731;27;96868;-51
2023/08/04 03:18:23;;;;;;;5.10;2.93;;;;;;;18.82;68.17;100636.19;5035063;27;97082;-51
2023/08/04 03:20:48;;;;;;;2.70;2.50;;;;;;;18.81;68.18;100643.03;5032915;27;96789;-51
2023/08/04 03:23:14;;;;;;;5.00;2.67;;;;;;;18.80;68.11;100649.94;5032863;27;97615;-51
2023/08/04 03:25:40;;;;;;;10.30;2.83;;;;;;;18.80;68.38;100649.94;5033554;27;97440;-51
2023/08/04 03:28:05;;;;;;;5.37;2.80;;;;;;;18.81;68.08;100656.97;5039387;27;97275;-51
2023/08/04 03:30:31;;;;;;;4.77;2.30;;;;;;;18.80;68.05;100649.94;5036121;27;97183;-51
2023/08/04 03:32:56;;;;;;;2.93;2.67;;;;;;;18.81;68.14;100651.41;5034365;27;97500;-50
2023/08/04 03:35:21;;;;;;;6.23;3.10;;;;;;;18.78;68.00;100646.94;5035267;27;97591;-51
2023/08/04 03:37:47;;;;;;;7.17;3.07;;;;;;;18.77;68.05;100654.56;5036365;27;97969;-50
2023/08/04 03:40:14;;;;;;;7.27;2.60;;;;;;;18.78;68.33;100658.09;5034427;27;96887;-51
2023/08/04 03:42:39;;;;;;;8.30;3.13;;;;;;;18.76;68.13;100667.00;5034922;27;97154;-50
2023/08/04 03:45:06;;;;;;;8.33;3.57;;;;;;;18.74;68.06;100669.56;5033794;27;97067;-51
2023/08/04 03:47:34;;;;;;;6.70;3.23;;;;;;;18.75;68.08;100671.09;5037021;27;97595;-51
2023/08/04 03:50:01;;;;;;;7.60;2.80;;;;;;;18.73;68.17;100670.88;5034474;27;97851;-51
2023/08/04 03:52:26;;;;;;;4.17;2.67;;;;;;;18.73;68.16;100672.91;5035901;27;97419;-51
2023/08/04 03:54:51;;;;;;;6.10;2.60;;;;;;;18.70;68.31;100674.75;5033867;27;97040;-51
2023/08/04 03:57:17;;;;;;;4.20;2.80;;;;;;;18.69;68.16;100676.06;5035393;27;97481;-50
2023/08/04 03:59:42;;;;;;;5.00;2.83;;;;;;;18.68;68.09;100678.09;5034464;27;98830;-51
2023/08/04 04:02:07;;;;;;;3.27;2.67;;;;;;;18.67;68.20;100682.16;5037449;27;97372;-51
2023/08/04 04:04:33;;;;;;;4.67;2.80;;;;;;;18.69;68.19;100687.22;5032927;27;97077;-51
2023/08/04 04:06:58;;;;;;;5.50;3.00;;;;;;;18.67;68.19;100693.31;5034902;27;97520;-51
2023/08/04 04:09:23;;;;;;;5.20;2.70;;;;;;;18.67;68.05;100698.91;5033249;27;104184;-51
2023/08/04 04:11:48;;;;;;;4.17;2.63;;;;;;;18.68;68.30;100699.66;5029719;27;106675;-51
2023/08/04 04:14:14;;;;;;;4.80;2.67;;;;;;;18.69;68.22;100695.59;5032354;27;97165;-51
2023/08/04 04:16:39;;;;;;;6.33;3.27;;;;;;;18.70;68.33;100697.06;5036701;27;97123;-51
2023/08/04 04:19:04;;;;;;;4.30;3.00;;;;;;;18.70;68.26;100700.59;5037309;27;103571;-51
2023/08/04 04:21:30;;;;;;;5.63;2.53;;;;;;;18.71;68.28;100704.13;5035816;27;97847;-50
2023/08/04 04:23:55;;;;;;;5.50;2.30;;;;;;;18.72;68.29;100699.31;5037648;27;97271;-51
2023/08/04 04:26:20;;;;;;;5.00;2.80;;;;;;;18.73;68.34;100709.16;5036474;27;97051;-51
2023/08/04 04:28:46;;;;;;;5.90;2.97;;;;;;;18.74;68.50;100705.81;5036599;27;97021;-51
2023/08/04 04:31:11;;;;;;;12.37;3.57;;;;;;;18.74;68.38;100708.59;5034998;27;114193;-51
2023/08/04 04:33:36;;;;;;;2.70;2.30;;;;;;;18.75;68.11;100710.09;5037683;27;97297;-51
2023/08/04 04:36:01;;;;;;;4.40;2.43;;;;;;;18.75;68.26;100715.69;5036807;27;97115;-50
2023/08/04 04:38:29;;;;;;;5.80;2.80;;;;;;;18.75;68.49;100715.69;5037899;27;97653;-51
2023/08/04 04:41:00;;;;;;;5.70;2.63;;;;;;;18.75;68.38;100715.69;5037937;27;97253;-51
2023/08/04 04:43:26;;;;;;;6.73;2.80;;;;;;;18.75;68.48;100726.06;5039584;27;97034;-51
2023/08/04 04:45:51;;;;;;;4.77;2.53;;;;;;;18.76;68.47;100725.56;5039204;27;97058;-51
2023/08/04 04:48:18;;;;;;;3.40;2.40;;;;;;;18.75;68.40;100729.63;5036661;27;97925;-51
2023/08/04 04:50:44;;;;;;;8.67;2.93;;;;;;;18.78;68.43;100725.75;5041271;27;96955;-51
2023/08/04 04:53:09;;;;;;;7.10;2.90;;;;;;;18.79;68.25;100727.22;5038534;27;97090;-50
2023/08/04 04:55:35;;;;;;;2.93;2.53;;;;;;;18.83;68.32;100726.91;5036527;27;97050;-50
2023/08/04 04:58:00;;;;;;;5.00;2.70;;;;;;;18.84;68.52;100723.53;5043115;27;97256;-50
2023/08/04 05:00:26;;;;;;;3.23;2.80;;;;;;;18.86;68.40;100728.56;5039319;27;100663;-50
2023/08/04 05:02:51;;;;;;;7.10;2.97;;;;;;;18.87;68.42;100730.78;5041718;27;96797;-50
2023/08/04 05:05:16;;;;;;;4.03;2.20;;;;;;;18.89;68.60;100733.06;5041534;27;96802;-50
2023/08/04 05:07:42;;;;;;;4.70;2.50;;;;;;;18.89;68.49;100730.28;5037811;27;96835;-50
2023/08/04 05:10:08;;;;;;;4.50;2.47;;;;;;;18.89;68.52;100739.38;5038881;27;96956;-50
2023/08/04 05:12:34;;;;;;;2.77;2.40;;;;;;;18.90;68.43;100737.31;5037077;27;96934;-50
2023/08/04 05:14:59;;;;;;;7.40;2.53;;;;;;;18.94;68.44;100744.03;5038729;27;96758;-50
2023/08/04 05:17:24;;;;;;;8.87;2.93;;;;;;;18.96;68.46;100747.03;5039747;27;109026;-50
2023/08/04 05:19:50;;;;;;;6.47;3.00;;;;;;;18.98;68.59;100736.06;5039911;27;97048;-50
2023/08/04 05:22:15;;;;;;;4.73;3.03;;;;;;;19.00;68.54;100741.84;5038049;27;97013;-50
2023/08/04 05:24:40;;;;;;;4.00;2.60;;;;;;;19.04;68.33;100749.88;5040950;27;97022;-50
2023/08/04 05:27:06;;;;;;;3.63;2.63;;;;;;;19.06;68.38;100761.97;5039333;27;100545;-50
2023/08/04 05:29:31;;;;;;;6.70;2.60;;;;;;;19.08;68.25;100747.47;5036142;27;98125;-50
2023/08/04 05:31:56;;;;;;;3.80;2.50;;;;;;;19.11;68.70;100754.75;5038450;27;96881;-50
2023/08/04 05:34:22;;;;;;;4.00;2.43;;;;;;;19.14;68.61;100762.00;5036926;27;96892;-50
2023/08/04 05:36:47;;;;;;;2.50;2.30;;;;;;;19.15;68.28;100761.47;5039973;27;97683;-50
2023/08/04 05:39:12;;;;;;;4.57;2.33;;;;;;;19.15;68.68;100763.50;5035876;27;110005;-50
2023/08/04 05:41:38;;;;;;;4.17;2.53;;;;;;;19.16;68.39;100768.53;5035388;27;97076;-50
2023/08/04 05:44:03;;;;;;;6.07;2.80;;;;;;;19.18;68.61;100768.72;5038497;27;96932;-50
2023/08/04 05:46:29;;;;;;;4.77;2.80;;;;;;;19.19;68.57;100767.44;5039882;27;97331;-50
2023/08/04 05:48:54;;;;;;;4.00;2.30;;;;;;;19.20;68.34;100776.53;5035502;27;97498;-50
2023/08/04 05:51:19;;;;;;;4.70;2.60;;;;;;;19.19;68.55;100775.81;5038072;27;97059;-51
2023/08/04 05:53:45;;;;;;;3.30;2.50;;;;;;;19.25;68.66;100778.44;5039476;27;97097;-51
2023/08/04 05:56:10;;;;;;;3.40;2.40;;;;;;;19.29;68.51;100784.41;5035744;27;97681;-51
2023/08/04 05:58:36;;;;;;;2.77;2.57;;;;;;;19.30;68.67;100783.88;5037294;27;97277;-50
2023/08/04 06:01:01;;;;;;;4.53;2.73;;;;;;;19.34;68.36;100787.09;5035933;27;97198;-51
2023/08/04 06:03:26;;;;;;;2.30;2.07;;;;;;;19.38;68.33;100792.31;5036947;27;97718;-51
2023/08/04 06:05:52;;;;;;;3.60;2.10;;;;;;;19.42;68.48;100792.69;5033357;27;97472;-51
2023/08/04 06:08:17;;;;;;;4.63;2.60;;;;;;;19.43;68.43;100792.16;5038875;27;103671;-51
2023/08/04 06:10:42;;;;;;;2.67;2.47;;;;;;;19.48;68.52;100795.34;5036231;27;97192;-51
2023/08/04 06:13:08;;;;;;;2.70;1.90;;;;;;;19.52;68.53;100795.72;5038968;27;97008;-51
2023/08/04 06:15:33;;;;;;;3.10;2.20;;;;;;;19.55;68.43;100794.63;5034065;27;97380;-51
2023/08/04 06:17:58;;;;;;;2.90;2.23;;;;;;;19.58;68.35;100799.09;5038563;27;97381;-51
2023/08/04 06:20:24;;;;;;;2.30;1.93;;;;;;;19.58;68.55;100801.88;5038020;27;97125;-51
2023/08/04 06:22:49;;;;;;;4.00;2.60;;;;;;;19.59;68.44;100797.81;5038758;27;96802;-51
2023/08/04 06:25:15;;;;;;;5.47;2.53;;;;;;;19.63;68.55;100801.75;5033951;27;97437;-51
2023/08/04 06:27:41;;;;;;;4.50;2.07;;;;;;;19.64;68.27;100802.47;5036826;27;97998;-51
2023/08/04 06:30:07;;;;;;;3.63;2.37;;;;;;;19.69;68.18;100809.94;5034830;27;97229;-51
2023/08/04 06:32:32;;;;;;;3.03;2.30;;;;;;;19.69;68.23;100815.50;5036518;27;97283;-51
2023/08/04 06:34:57;;;;;;;3.00;2.00;;;;;;;19.71;68.19;100812.91;5035570;27;97048;-51
2023/08/04 06:37:23;;;;;;;7.33;2.30;;;;;;;19.70;68.15;100814.22;5034180;27;96639;-50
2023/08/04 06:39:49;;;;;;;2.83;2.60;;;;;;;19.68;68.19;100817.56;5035743;27;96720;-51
2023/08/04 06:42:15;;;;;;;3.47;2.50;;;;;;;19.69;68.20;100832.28;5034008;27;97211;-51
2023/08/04 06:44:40;;;;;;;4.73;2.33;;;;;;;19.71;68.26;100824.84;5036543;27;97785;-51
2023/08/04 06:47:06;;;;;;;5.40;2.20;;;;;;;19.73;68.13;100832.66;5033572;27;105760;-51
2023/08/04 06:49:31;;;;;;;2.23;2.03;;;;;;;19.72;68.28;100820.75;5034928;27;98310;-51
2023/08/04 06:51:56;;;;;;;4.67;2.90;;;;;;;19.73;68.20;100821.50;5035211;27;97388;-51
2023/08/04 06:54:22;;;;;;;3.80;2.33;;;;;;;19.74;67.95;100826.53;5035573;27;97343;-51
2023/08/04 06:56:47;;;;;;;5.43;2.07;;;;;;;19.79;68.36;100833.25;5037672;27;97241;-51
2023/08/04 06:59:12;;;;;;;3.60;2.20;;;;;;;19.82;67.98;100821.72;5036938;27;97029;-51
2023/08/04 07:01:38;;;;;;;1.77;1.67;;;;;;;19.86;68.14;100824.91;5037061;27;96993;-51
2023/08/04 07:04:03;;;;;;;2.90;2.10;;;;;;;19.90;67.92;100828.06;5038043;27;96772;-51
2023/08/04 07:06:29;;;;;;;3.73;2.20;;;;;;;19.94;67.84;100831.25;5036001;27;97484;-51
2023/08/04 07:08:55;;;;;;;2.13;2.03;;;;;;;19.97;68.01;100832.19;5036161;27;96890;-51
2023/08/04 07:11:20;;;;;;;3.87;2.20;;;;;;;19.97;67.91;100834.97;5034913;27;97184;-51
2023/08/04 07:13:46;;;;;;;2.30;2.10;;;;;;;19.98;67.77;100836.50;5035402;27;98052;-51
2023/08/04 07:16:12;;;;;;;10.30;2.60;;;;;;;19.96;67.56;100839.09;5036346;27;97544;-51
2023/08/04 07:18:38;;;;;;;5.40;2.60;;;;;;;19.98;67.65;100836.50;5037840;27;97495;-51
2023/08/04 07:21:13;;;;;;;3.93;1.97;;;;;;;20.01;67.63;100841.72;5037574;27;97007;-51
2023/08/04 07:23:39;;;;;;;8.30;2.53;;;;;;;20.06;67.72;100845.63;5034229;27;97346;-51
2023/08/04 07:26:06;;;;;;;4.67;2.10;;;;;;;20.09;67.65;100844.53;5036292;27;97114;-51
2023/08/04 07:28:32;;;;;;;4.37;1.73;;;;;;;20.12;67.61;100840.63;5034151;27;97015;-51
2023/08/04 07:30:59;;;;;;;4.00;2.40;;;;;;;20.12;67.54;100846.19;5035827;27;96852;-51
2023/08/04 07:33:26;;;;;;;2.90;2.20;;;;;;;20.13;67.43;100853.28;5032684;27;98180;-51
2023/08/04 07:35:55;;;;;;;4.97;2.50;;;;;;;20.18;67.60;100855.19;5029307;27;97259;-51
2023/08/04 07:38:21;;;;;;;10.07;2.10;;;;;;;20.19;67.47;100853.88;5032364;27;96971;-51
2023/08/04 07:40:47;;;;;;;2.30;1.67;;;;;;;20.22;67.28;100863.97;5035120;27;97268;-51
2023/08/04 07:43:13;;;;;;;3.97;2.13;;;;;;;20.25;67.45;100862.84;5036617;27;97808;-50
2023/08/04 07:45:39;;;;;;;4.20;2.33;;;;;;;20.28;67.25;100869.38;5034024;27;96988;-50
2023/08/04 07:48:04;;;;;;;2.40;2.00;;;;;;;20.33;67.34;100872.00;5037790;27;97234;-51
2023/08/04 07:50:29;;;;;;;2.17;1.97;;;;;;;20.37;67.30;100868.84;5036343;27;97165;-50
2023/08/04 07:52:55;;;;;;;5.93;1.83;;;;;;;20.41;67.40;100878.34;5034555;27;96980;-50
2023/08/04 07:55:21;;;;;;;7.00;2.37;;;;;;;20.44;67.17;100885.66;5035417;27;97343;-50
2023/08/04 07:57:47;;;;;;;3.17;2.00;;;;;;;20.46;67.20;100885.84;5039432;27;97140;-50
2023/08/04 08:00:12;;;;;;;4.30;2.07;;;;;;;20.50;67.16;100886.22;5039784;27;97082;-51
2023/08/04 08:02:38;;;;;;;7.83;1.97;;;;;;;20.56;67.15;100897.97;5034180;27;98156;-50
2023/08/04 08:05:03;;;;;;;4.20;2.33;;;;;;;20.62;67.16;100895.00;5040281;27;110837;-51
2023/08/04 08:07:29;;;;;;;3.63;2.03;;;;;;;20.67;67.20;100902.44;5035547;27;97016;-51
2023/08/04 08:09:54;;;;;;;2.40;1.73;;;;;;;20.71;67.21;100905.63;5039833;27;97032;-51
2023/08/04 08:12:19;;;;;;;2.27;2.00;;;;;;;20.74;67.11;100899.66;5039731;27;97385;-51
2023/08/04 08:14:45;;;;;;;2.90;1.53;;;;;;;20.79;67.07;100901.53;5041869;27;97089;-51
2023/08/04 08:17:10;;;;;;;2.00;1.67;;;;;;;20.86;67.18;100902.84;5038988;27;96723;-51
2023/08/04 08:19:35;;;;;;;2.30;1.77;;;;;;;20.90;67.05;100906.75;5040960;27;97470;-51
2023/08/04 08:22:01;;;;;;;4.13;1.77;;;;;;;20.97;66.85;100894.06;5040248;27;97874;-52
2023/08/04 08:24:26;;;;;;;2.80;1.60;;;;;;;21.03;66.67;100910.69;5037192;27;97216;-50
2023/08/04 08:26:52;;;;;;;3.47;1.77;;;;;;;21.08;66.68;100909.78;5039471;27;97200;-51
2023/08/04 08:29:17;;;;;;;2.50;1.70;;;;;;;21.17;66.63;100909.22;5040300;27;97162;-50
2023/08/04 08:31:42;;;;;;;4.43;1.90;;;;;;;21.21;66.52;100915.22;5037909;27;97358;-51
2023/08/04 08:34:08;;;;;;;2.70;1.57;;;;;;;21.24;66.38;100922.47;5035614;27;97141;-50
2023/08/04 08:36:33;;;;;;;5.67;1.50;;;;;;;21.31;66.28;100918.91;5039166;27;96914;-50
2023/08/04 08:38:58;;;;;;;3.80;1.40;;;;;;;21.38;66.31;100926.56;5043800;27;97560;-51
2023/08/04 08:41:24;;;;;;;1.60;1.47;;;;;;;21.43;66.20;100928.41;5041274;27;97336;-51
2023/08/04 08:43:49;;;;;;;5.50;2.07;;;;;;;21.48;66.09;100928.22;5041646;27;97148;-50
2023/08/04 08:46:15;;;;;;;1.63;1.53;;;;;;;21.53;66.02;100924.50;5039827;27;97138;-51
2023/08/04 08:48:44;;;;;;;2.47;1.50;;;;;;;21.59;65.93;100939.03;5042165;27;97086;-51
2023/08/04 08:51:29;;;;;;;3.33;1.23;;;;;;;21.64;65.34;100938.09;5035305;27;96598;-52
2023/08/04 08:53:56;;;;;;;1.93;1.30;;;;;;;21.71;65.47;100941.44;5035690;27;97288;-51
2023/08/04 08:56:21;;;;;;;2.70;1.40;;;;;;;21.75;65.39;100939.00;5038527;27;97322;-51
2023/08/04 08:58:47;;;;;;;1.97;1.30;;;;;;;21.75;65.24;100936.22;5039185;27;97201;-51
2023/08/04 09:01:14;;;;;;;3.07;1.27;;;;;;;21.77;65.43;100934.34;5039011;27;97482;-51
2023/08/04 09:03:39;;;;;;;1.50;1.40;;;;;;;21.80;65.35;100944.41;5037474;27;97142;-52
2023/08/04 09:06:04;;;;;;;2.13;1.30;;;;;;;21.81;65.07;100940.31;5040696;27;97588;-52
2023/08/04 09:08:30;;;;;;;1.70;1.30;;;;;;;21.80;65.19;100944.41;5036834;27;97389;-51
2023/08/04 09:10:58;;;;;;;1.77;1.17;;;;;;;21.80;65.19;100949.28;5038958;27;97345;-51
2023/08/04 09:13:26;;;;;;;3.50;1.50;;;;;;;21.76;64.96;100949.66;5039263;27;110085;-51
2023/08/04 09:16:00;;;;;;;3.47;2.23;;;;;;;21.72;64.56;100942.94;5041999;27;97492;-51
2023/08/04 09:18:31;;;;;;;1.37;1.17;;;;;;;21.72;64.55;100949.28;5036901;27;97418;-51
2023/08/04 09:21:08;;;;;;;1.53;1.00;;;;;;;21.71;64.38;100944.25;5037377;27;97056;-51
2023/08/04 09:23:52;;;;;;;1.60;1.30;;;;;;;21.74;64.21;100949.47;5037286;27;97120;-52
2023/08/04 09:26:18;;;;;;;1.03;0.93;;;;;;;21.75;64.54;100958.63;5037083;27;96732;-52
2023/08/04 09:28:43;;;;;;;1.30;0.93;;;;;;;21.76;64.47;100958.03;5039006;27;96845;-52
2023/08/04 09:31:16;;;;;;;1.80;1.33;;;;;;;21.79;64.23;100958.97;5038850;27;97461;-51
2023/08/04 09:33:43;;;;;;;2.20;1.20;;;;;;;21.81;64.22;100964.75;5036910;27;97124;-51
2023/08/04 09:36:15;;;;;;;2.23;1.10;;;;;;;21.89;63.99;100963.47;5034425;27;97149;-52
2023/08/04 09:38:42;;;;;;;1.33;1.23;;;;;;;21.96;64.38;100970.34;5040322;27;97087;-52
2023/08/04 09:41:09;;;;;;;2.90;1.33;;;;;;;22.04;64.15;100973.91;5034232;27;97211;-51
2023/08/04 09:43:35;;;;;;;1.27;1.13;;;;;;;22.07;63.99;100967.16;5034096;27;97068;-51
2023/08/04 09:46:06;;;;;;;2.83;1.60;;;;;;;22.09;63.39;100959.66;5040025;27;97146;-51
2023/08/04 09:48:32;;;;;;;2.03;1.13;;;;;;;22.14;63.72;100966.38;5036609;27;97311;-51
2023/08/04 09:51:08;;;;;;;1.23;1.07;;;;;;;22.15;63.08;100965.81;5038578;27;97242;-51
2023/08/04 09:53:42;;;;;;;2.13;1.40;;;;;;;22.19;63.59;100957.75;5037211;27;97284;-51
2023/08/04 09:56:08;;;;;;;1.10;1.00;;;;;;;22.28;63.56;100959.97;5036952;27;96736;-51
2023/08/04 09:58:34;;;;;;;1.00;0.90;;;;;;;22.31;63.06;100958.84;5040287;27;97099;-51
2023/08/04 10:01:01;;;;;;;2.53;1.30;;;;;;;22.35;62.77;100964.81;5038327;27;96689;-51
2023/08/04 10:03:28;;;;;;;3.30;1.20;;;;;;;22.37;62.71;100984.59;5036085;27;97041;-52
2023/08/04 10:05:55;;;;;;;1.23;1.13;;;;;;;22.46;62.78;100968.47;5038038;27;96811;-52
2023/08/04 10:08:20;;;;;;;3.27;1.20;;;;;;;22.48;62.39;100966.59;5038571;27;96880;-51
2023/08/04 10:10:46;;;;;;;1.70;1.03;;;;;;;22.46;62.03;100971.28;5037800;27;97433;-50
2023/08/04 10:13:12;;;;;;;2.60;1.13;;;;;;;22.44;62.00;100971.88;5039971;27;97153;-52
2023/08/04 10:15:38;;;;;;;1.97;1.03;;;;;;;22.48;61.86;100974.28;5038032;27;96727;-52
2023/08/04 10:18:04;;;;;;;1.47;1.20;;;;;;;22.50;61.73;100974.47;5035246;27;97050;-53
2023/08/04 10:20:33;;;;;;;1.47;1.10;;;;;;;22.57;61.38;100968.06;5037309;27;97278;-52
2023/08/04 10:22:58;;;;;;;0.97;0.83;;;;;;;22.64;61.79;100967.31;5037266;27;96881;-52
2023/08/04 10:25:24;;;;;;;1.10;0.83;;;;;;;22.73;61.66;100966.69;5041669;27;97014;-53
2023/08/04 10:27:50;;;;;;;1.10;1.00;;;;;;;22.79;61.58;100959.56;5036580;27;96773;-52
2023/08/04 10:30:15;;;;;;;2.77;1.17;;;;;;;22.81;61.48;100970.19;5038474;27;97877;-53
2023/08/04 10:32:42;;;;;;;0.80;0.80;;;;;;;22.87;61.04;100968.66;5034894;27;97201;-52
2023/08/04 10:35:18;;;;;;;2.20;0.80;;;;;;;22.94;60.40;100967.88;5039170;27;96651;-53
2023/08/04 10:37:50;;;;;;;1.93;0.70;;;;;;;22.99;60.48;100968.97;5036744;27;97205;-52
2023/08/04 10:40:33;;;;;;;0.80;0.80;;;;;;;23.03;60.10;100972.84;5034932;27;97363;-52
2023/08/04 10:43:08;;;;;;;1.37;0.70;;;;;;;23.07;59.64;100975.25;5035865;27;98081;-53
2023/08/04 10:45:55;;;;;;;1.23;0.70;;;;;;;23.07;59.15;100975.25;5039209;27;96798;-53
2023/08/04 10:48:22;;;;;;;1.40;1.00;;;;;;;23.08;60.55;100985.19;5039169;27;96766;-52
2023/08/04 10:50:49;;;;;;;1.10;0.90;;;;;;;23.13;60.43;100991.88;5036938;27;97076;-52
2023/08/04 10:53:15;;;;;;;1.17;0.90;;;;;;;23.16;60.30;100980.25;5034494;27;97070;-52
2023/08/04 10:55:52;;;;;;;2.60;0.90;;;;;;;23.19;59.21;100984.72;5034460;27;97067;-53
2023/08/04 10:58:17;;;;;;;0.90;0.90;;;;;;;23.28;60.39;100984.09;5034294;27;96781;-52
2023/08/04 11:00:43;;;;;;;0.80;0.80;;;;;;;23.34;59.91;100984.63;5036702;27;97478;-53
2023/08/04 11:03:18;;;;;;;1.10;0.90;;;;;;;23.38;59.21;100976.53;5035776;27;97081;-53
2023/08/04 11:05:43;;;;;;;1.53;1.20;;;;;;;23.47;59.48;100980.78;5035325;27;97364;-53
2023/08/04 11:08:08;;;;;;;3.73;1.13;;;;;;;23.62;59.54;100978.56;5027385;27;97172;-53
2023/08/04 11:10:34;;;;;;;1.33;1.00;;;;;;;23.69;59.06;100977.00;5036624;27;96885;-52
2023/08/04 11:12:59;;;;;;;1.30;0.87;;;;;;;23.79;59.21;100986.28;5035110;27;97495;-53
2023/08/04 11:15:25;;;;;;;4.63;1.10;;;;;;;23.87;58.80;100986.22;5036907;27;97016;-53
2023/08/04 11:17:50;;;;;;;3.73;1.10;;;;;;;23.89;58.89;100984.31;5035988;27;96946;-53
2023/08/04 11:20:15;;;;;;;1.90;1.30;;;;;;;24.00;59.07;100983.81;5034512;27;97427;-52